sensor_id;sensor_type;location;lat;lon;timestamp;P1;durP1;ratioP1;P2;durP2;ratioP2
18499;SDS011;9379;52.134;11.576;2022-08-04T00:00:06;4.03;;;1.95;;
18499;SDS011;9379;52.134;11.576;2022-08-04T00:02:38;2.60;;;2.40;;
18499;SDS011;9379;52.134;11.576;2022-08-04T00:05:16;4.05;;;2.30;;
18499;SDS011;9379;52.134;11.576;2022-08-04T00:07:56;3.95;;;3.25;;
18499;SDS011;9379;52.134;11.576;2022-08-04T00:10:30;3.13;;;2.28;;
18499;SDS011;9379;52.134;11.576;2022-08-04T00:13:01;2.95;;;2.75;;
18499;SDS011;9379;52.134;11.576;2022-08-04T00:15:30;3.55;;;2.67;;
18499;SDS011;9379;52.134;11.576;2022-08-04T00:17:59;3.72;;;3.03;;
18499;SDS011;9379;52.134;11.576;2022-08-04T00:20:29;2.70;;;2.45;;
18499;SDS011;9379;52.134;11.576;2022-08-04T00:22:59;2.40;;;2.30;;
18499;SDS011;9379;52.134;11.576;2022-08-04T00:25:26;3.05;;;2.78;;
18499;SDS011;9379;52.134;11.576;2022-08-04T00:27:54;6.95;;;3.22;;
18499;SDS011;9379;52.134;11.576;2022-08-04T00:30:31;1.92;;;1.83;;
18499;SDS011;9379;52.134;11.576;2022-08-04T00:32:59;2.72;;;2.53;;
18499;SDS011;9379;52.134;11.576;2022-08-04T00:35:26;2.90;;;2.70;;
18499;SDS011;9379;52.134;11.576;2022-08-04T00:37:54;3.40;;;2.60;;
18499;SDS011;9379;52.134;11.576;2022-08-04T00:40:23;2.40;;;2.05;;
18499;SDS011;9379;52.134;11.576;2022-08-04T00:43:02;2.78;;;2.35;;
18499;SDS011;9379;52.134;11.576;2022-08-04T00:45:47;7.25;;;2.67;;
18499;SDS011;9379;52.134;11.576;2022-08-04T00:48:57;2.95;;;2.75;;
18499;SDS011;9379;52.134;11.576;2022-08-04T00:51:36;3.88;;;2.20;;
18499;SDS011;9379;52.134;11.576;2022-08-04T00:54:16;2.75;;;2.55;;
18499;SDS011;9379;52.134;11.576;2022-08-04T00:59:50;1.90;;;1.80;;
18499;SDS011;9379;52.134;11.576;2022-08-04T01:02:34;2.65;;;2.45;;
18499;SDS011;9379;52.134;11.576;2022-08-04T01:05:05;8.73;;;3.90;;
18499;SDS011;9379;52.134;11.576;2022-08-04T01:07:41;3.03;;;2.13;;
18499;SDS011;9379;52.134;11.576;2022-08-04T01:10:18;2.30;;;2.20;;
18499;SDS011;9379;52.134;11.576;2022-08-04T01:12:59;2.88;;;2.67;;
18499;SDS011;9379;52.134;11.576;2022-08-04T01:15:38;5.15;;;2.83;;
18499;SDS011;9379;52.134;11.576;2022-08-04T01:18:12;1.85;;;1.75;;
18499;SDS011;9379;52.134;11.576;2022-08-04T01:20:48;2.80;;;2.60;;
18499;SDS011;9379;52.134;11.576;2022-08-04T01:23:44;6.32;;;3.40;;
18499;SDS011;9379;52.134;11.576;2022-08-04T01:29:21;2.63;;;2.42;;
18499;SDS011;9379;52.134;11.576;2022-08-04T01:31:59;3.58;;;2.90;;
18499;SDS011;9379;52.134;11.576;2022-08-04T01:34:28;5.50;;;2.92;;
18499;SDS011;9379;52.134;11.576;2022-08-04T01:36:58;3.90;;;3.38;;
18499;SDS011;9379;52.134;11.576;2022-08-04T01:39:32;3.25;;;2.65;;
18499;SDS011;9379;52.134;11.576;2022-08-04T01:42:06;4.15;;;2.83;;
18499;SDS011;9379;52.134;11.576;2022-08-04T01:44:36;3.08;;;2.83;;
18499;SDS011;9379;52.134;11.576;2022-08-04T01:47:04;3.40;;;3.13;;
18499;SDS011;9379;52.134;11.576;2022-08-04T01:49:32;2.47;;;2.28;;
18499;SDS011;9379;52.134;11.576;2022-08-04T01:52:00;2.67;;;2.47;;
18499;SDS011;9379;52.134;11.576;2022-08-04T01:54:28;2.58;;;2.38;;
18499;SDS011;9379;52.134;11.576;2022-08-04T01:56:57;3.53;;;2.97;;
18499;SDS011;9379;52.134;11.576;2022-08-04T01:59:25;3.30;;;3.00;;
18499;SDS011;9379;52.134;11.576;2022-08-04T02:01:57;2.72;;;2.47;;
18499;SDS011;9379;52.134;11.576;2022-08-04T02:04:24;4.05;;;2.80;;
18499;SDS011;9379;52.134;11.576;2022-08-04T02:06:57;2.85;;;2.45;;
18499;SDS011;9379;52.134;11.576;2022-08-04T02:09:34;4.07;;;2.42;;
18499;SDS011;9379;52.134;11.576;2022-08-04T02:12:08;3.50;;;2.30;;
18499;SDS011;9379;52.134;11.576;2022-08-04T02:14:47;7.40;;;2.10;;
18499;SDS011;9379;52.134;11.576;2022-08-04T02:17:21;2.30;;;2.08;;
18499;SDS011;9379;52.134;11.576;2022-08-04T02:20:02;4.35;;;2.65;;
18499;SDS011;9379;52.134;11.576;2022-08-04T02:22:33;2.70;;;2.50;;
18499;SDS011;9379;52.134;11.576;2022-08-04T02:25:06;5.40;;;2.65;;
18499;SDS011;9379;52.134;11.576;2022-08-04T02:27:39;2.83;;;2.20;;
18499;SDS011;9379;52.134;11.576;2022-08-04T02:30:14;2.83;;;2.63;;
18499;SDS011;9379;52.134;11.576;2022-08-04T02:32:44;2.75;;;2.55;;
18499;SDS011;9379;52.134;11.576;2022-08-04T02:35:14;3.22;;;2.95;;
18499;SDS011;9379;52.134;11.576;2022-08-04T02:37:48;4.30;;;2.53;;
18499;SDS011;9379;52.134;11.576;2022-08-04T02:40:25;2.47;;;2.10;;
18499;SDS011;9379;52.134;11.576;2022-08-04T02:42:55;2.97;;;2.78;;
18499;SDS011;9379;52.134;11.576;2022-08-04T02:45:23;2.80;;;2.60;;
18499;SDS011;9379;52.134;11.576;2022-08-04T02:47:53;2.33;;;2.13;;
18499;SDS011;9379;52.134;11.576;2022-08-04T02:50:23;4.70;;;3.15;;
18499;SDS011;9379;52.134;11.576;2022-08-04T02:52:51;2.13;;;2.00;;
18499;SDS011;9379;52.134;11.576;2022-08-04T02:55:21;3.20;;;2.80;;
18499;SDS011;9379;52.134;11.576;2022-08-04T02:57:49;2.63;;;2.42;;
18499;SDS011;9379;52.134;11.576;2022-08-04T03:00:17;2.92;;;2.35;;
18499;SDS011;9379;52.134;11.576;2022-08-04T03:02:49;3.20;;;2.10;;
18499;SDS011;9379;52.134;11.576;2022-08-04T03:05:31;3.92;;;3.50;;
18499;SDS011;9379;52.134;11.576;2022-08-04T03:08:19;4.55;;;2.30;;
18499;SDS011;9379;52.134;11.576;2022-08-04T03:11:21;3.60;;;3.30;;
18499;SDS011;9379;52.134;11.576;2022-08-04T03:14:04;3.05;;;2.85;;
18499;SDS011;9379;52.134;11.576;2022-08-04T03:23:00;4.13;;;2.85;;
18499;SDS011;9379;52.134;11.576;2022-08-04T03:25:48;3.40;;;2.63;;
18499;SDS011;9379;52.134;11.576;2022-08-04T03:34:51;5.72;;;3.72;;
18499;SDS011;9379;52.134;11.576;2022-08-04T03:37:50;2.97;;;2.78;;
18499;SDS011;9379;52.134;11.576;2022-08-04T03:40:48;3.65;;;3.35;;
18499;SDS011;9379;52.134;11.576;2022-08-04T03:43:32;5.72;;;2.72;;
18499;SDS011;9379;52.134;11.576;2022-08-04T03:46:29;3.67;;;2.50;;
18499;SDS011;9379;52.134;11.576;2022-08-04T03:49:22;2.65;;;2.45;;
18499;SDS011;9379;52.134;11.576;2022-08-04T03:52:03;3.83;;;2.10;;
18499;SDS011;9379;52.134;11.576;2022-08-04T03:55:22;2.90;;;2.65;;
18499;SDS011;9379;52.134;11.576;2022-08-04T04:01:11;5.72;;;3.90;;
18499;SDS011;9379;52.134;11.576;2022-08-04T04:04:14;3.10;;;2.90;;
18499;SDS011;9379;52.134;11.576;2022-08-04T04:07:12;5.60;;;2.20;;
18499;SDS011;9379;52.134;11.576;2022-08-04T04:10:07;5.90;;;3.35;;
18499;SDS011;9379;52.134;11.576;2022-08-04T04:13:04;4.93;;;2.63;;
18499;SDS011;9379;52.134;11.576;2022-08-04T04:15:53;2.60;;;2.38;;
18499;SDS011;9379;52.134;11.576;2022-08-04T04:18:46;5.53;;;2.95;;
18499;SDS011;9379;52.134;11.576;2022-08-04T04:21:35;3.40;;;3.20;;
18499;SDS011;9379;52.134;11.576;2022-08-04T04:27:08;6.82;;;2.78;;
18499;SDS011;9379;52.134;11.576;2022-08-04T04:29:58;4.55;;;3.60;;
18499;SDS011;9379;52.134;11.576;2022-08-04T04:32:34;3.13;;;2.83;;
18499;SDS011;9379;52.134;11.576;2022-08-04T04:35:26;5.35;;;3.50;;
18499;SDS011;9379;52.134;11.576;2022-08-04T04:41:03;3.30;;;3.10;;
18499;SDS011;9379;52.134;11.576;2022-08-04T04:43:52;6.05;;;4.25;;
18499;SDS011;9379;52.134;11.576;2022-08-04T04:46:35;4.22;;;3.65;;
18499;SDS011;9379;52.134;11.576;2022-08-04T04:49:10;3.03;;;2.83;;
18499;SDS011;9379;52.134;11.576;2022-08-04T04:51:47;4.10;;;3.67;;
18499;SDS011;9379;52.134;11.576;2022-08-04T04:54:23;4.13;;;3.22;;
18499;SDS011;9379;52.134;11.576;2022-08-04T04:56:57;7.45;;;2.97;;
18499;SDS011;9379;52.134;11.576;2022-08-04T04:59:31;5.40;;;3.40;;
18499;SDS011;9379;52.134;11.576;2022-08-04T05:02:06;3.88;;;3.47;;
18499;SDS011;9379;52.134;11.576;2022-08-04T05:07:59;2.63;;;2.53;;
18499;SDS011;9379;52.134;11.576;2022-08-04T05:10:48;3.03;;;2.60;;
18499;SDS011;9379;52.134;11.576;2022-08-04T05:13:31;3.53;;;3.15;;
18499;SDS011;9379;52.134;11.576;2022-08-04T05:16:03;4.65;;;2.75;;
18499;SDS011;9379;52.134;11.576;2022-08-04T05:18:33;3.25;;;2.80;;
18499;SDS011;9379;52.134;11.576;2022-08-04T05:21:07;4.13;;;3.70;;
18499;SDS011;9379;52.134;11.576;2022-08-04T05:23:46;4.50;;;3.22;;
18499;SDS011;9379;52.134;11.576;2022-08-04T05:26:17;5.20;;;3.55;;
18499;SDS011;9379;52.134;11.576;2022-08-04T05:28:51;3.45;;;3.15;;
18499;SDS011;9379;52.134;11.576;2022-08-04T05:31:20;4.22;;;2.83;;
18499;SDS011;9379;52.134;11.576;2022-08-04T05:33:51;2.72;;;2.53;;
18499;SDS011;9379;52.134;11.576;2022-08-04T05:36:24;3.33;;;3.00;;
18499;SDS011;9379;52.134;11.576;2022-08-04T05:38:59;3.22;;;2.95;;
18499;SDS011;9379;52.134;11.576;2022-08-04T05:41:27;3.17;;;2.97;;
18499;SDS011;9379;52.134;11.576;2022-08-04T05:43:55;3.17;;;2.97;;
18499;SDS011;9379;52.134;11.576;2022-08-04T05:46:24;4.40;;;3.47;;
18499;SDS011;9379;52.134;11.576;2022-08-04T05:48:53;3.08;;;2.85;;
18499;SDS011;9379;52.134;11.576;2022-08-04T05:51:20;4.78;;;3.47;;
18499;SDS011;9379;52.134;11.576;2022-08-04T05:53:50;4.38;;;3.35;;
18499;SDS011;9379;52.134;11.576;2022-08-04T05:56:19;2.75;;;2.55;;
18499;SDS011;9379;52.134;11.576;2022-08-04T05:58:46;4.18;;;3.20;;
18499;SDS011;9379;52.134;11.576;2022-08-04T06:01:13;3.55;;;3.13;;
18499;SDS011;9379;52.134;11.576;2022-08-04T06:03:43;3.20;;;2.97;;
18499;SDS011;9379;52.134;11.576;2022-08-04T06:06:13;3.38;;;2.83;;
18499;SDS011;9379;52.134;11.576;2022-08-04T06:08:42;5.88;;;3.50;;
18499;SDS011;9379;52.134;11.576;2022-08-04T06:11:11;4.55;;;4.07;;
18499;SDS011;9379;52.134;11.576;2022-08-04T06:13:41;2.70;;;2.42;;
18499;SDS011;9379;52.134;11.576;2022-08-04T06:16:10;6.80;;;3.70;;
18499;SDS011;9379;52.134;11.576;2022-08-04T06:18:40;7.38;;;3.90;;
18499;SDS011;9379;52.134;11.576;2022-08-04T06:21:10;7.85;;;4.00;;
18499;SDS011;9379;52.134;11.576;2022-08-04T06:23:38;3.72;;;3.42;;
18499;SDS011;9379;52.134;11.576;2022-08-04T06:26:07;3.35;;;3.15;;
18499;SDS011;9379;52.134;11.576;2022-08-04T06:28:42;4.05;;;3.53;;
18499;SDS011;9379;52.134;11.576;2022-08-04T06:31:11;3.65;;;3.03;;
18499;SDS011;9379;52.134;11.576;2022-08-04T06:33:46;6.97;;;3.75;;
18499;SDS011;9379;52.134;11.576;2022-08-04T06:36:14;3.25;;;3.05;;
18499;SDS011;9379;52.134;11.576;2022-08-04T06:38:41;4.35;;;3.95;;
18499;SDS011;9379;52.134;11.576;2022-08-04T06:41:10;4.97;;;3.83;;
18499;SDS011;9379;52.134;11.576;2022-08-04T06:43:37;13.15;;;2.83;;
18499;SDS011;9379;52.134;11.576;2022-08-04T06:46:05;4.93;;;3.00;;
18499;SDS011;9379;52.134;11.576;2022-08-04T06:48:34;5.78;;;3.15;;
18499;SDS011;9379;52.134;11.576;2022-08-04T06:51:02;3.50;;;3.20;;
18499;SDS011;9379;52.134;11.576;2022-08-04T06:53:29;3.65;;;3.35;;
18499;SDS011;9379;52.134;11.576;2022-08-04T06:55:56;4.70;;;3.80;;
18499;SDS011;9379;52.134;11.576;2022-08-04T06:58:30;3.65;;;3.35;;
18499;SDS011;9379;52.134;11.576;2022-08-04T07:00:58;3.72;;;2.92;;
18499;SDS011;9379;52.134;11.576;2022-08-04T07:03:27;4.30;;;3.70;;
18499;SDS011;9379;52.134;11.576;2022-08-04T07:05:54;5.95;;;2.92;;
18499;SDS011;9379;52.134;11.576;2022-08-04T07:08:22;7.60;;;3.22;;
18499;SDS011;9379;52.134;11.576;2022-08-04T07:10:49;5.72;;;3.40;;
18499;SDS011;9379;52.134;11.576;2022-08-04T07:13:18;11.57;;;3.70;;
18499;SDS011;9379;52.134;11.576;2022-08-04T07:15:48;4.70;;;3.28;;
18499;SDS011;9379;52.134;11.576;2022-08-04T07:18:16;3.28;;;3.05;;
18499;SDS011;9379;52.134;11.576;2022-08-04T07:20:44;2.97;;;2.72;;
18499;SDS011;9379;52.134;11.576;2022-08-04T07:23:14;7.47;;;3.28;;
18499;SDS011;9379;52.134;11.576;2022-08-04T07:25:44;2.50;;;2.28;;
18499;SDS011;9379;52.134;11.576;2022-08-04T07:28:20;8.70;;;2.67;;
18499;SDS011;9379;52.134;11.576;2022-08-04T07:30:50;2.72;;;2.53;;
18499;SDS011;9379;52.134;11.576;2022-08-04T07:33:19;6.13;;;2.67;;
18499;SDS011;9379;52.134;11.576;2022-08-04T07:35:48;2.58;;;2.38;;
18499;SDS011;9379;52.134;11.576;2022-08-04T07:38:25;4.70;;;3.70;;
18499;SDS011;9379;52.134;11.576;2022-08-04T07:40:53;7.18;;;3.75;;
18499;SDS011;9379;52.134;11.576;2022-08-04T07:43:20;7.68;;;3.35;;
18499;SDS011;9379;52.134;11.576;2022-08-04T07:45:49;13.18;;;3.45;;
18499;SDS011;9379;52.134;11.576;2022-08-04T07:48:21;4.68;;;2.67;;
18499;SDS011;9379;52.134;11.576;2022-08-04T07:50:56;4.60;;;3.53;;
18499;SDS011;9379;52.134;11.576;2022-08-04T07:53:53;4.45;;;3.00;;
18499;SDS011;9379;52.134;11.576;2022-08-04T07:56:47;5.88;;;2.53;;
18499;SDS011;9379;52.134;11.576;2022-08-04T07:59:30;2.75;;;2.55;;
18499;SDS011;9379;52.134;11.576;2022-08-04T08:02:11;6.00;;;2.58;;
18499;SDS011;9379;52.134;11.576;2022-08-04T08:05:06;6.07;;;2.97;;
18499;SDS011;9379;52.134;11.576;2022-08-04T08:23:50;7.22;;;2.60;;
18499;SDS011;9379;52.134;11.576;2022-08-04T08:26:45;2.28;;;2.17;;
18499;SDS011;9379;52.134;11.576;2022-08-04T08:29:30;1.63;;;1.52;;
18499;SDS011;9379;52.134;11.576;2022-08-04T08:39:20;11.25;;;2.53;;
18499;SDS011;9379;52.134;11.576;2022-08-04T08:49:22;2.17;;;1.92;;
18499;SDS011;9379;52.134;11.576;2022-08-04T08:52:31;1.83;;;1.73;;
18499;SDS011;9379;52.134;11.576;2022-08-04T08:58:37;2.78;;;1.60;;
18499;SDS011;9379;52.134;11.576;2022-08-04T09:04:55;2.50;;;1.83;;
18499;SDS011;9379;52.134;11.576;2022-08-04T09:15:07;3.75;;;3.42;;
18499;SDS011;9379;52.134;11.576;2022-08-04T09:17:50;3.83;;;3.53;;
18499;SDS011;9379;52.134;11.576;2022-08-04T09:20:34;5.10;;;4.65;;
18499;SDS011;9379;52.134;11.576;2022-08-04T09:23:41;4.75;;;4.43;;
18499;SDS011;9379;52.134;11.576;2022-08-04T09:30:12;6.43;;;5.65;;
18499;SDS011;9379;52.134;11.576;2022-08-04T09:33:30;6.18;;;5.72;;
18499;SDS011;9379;52.134;11.576;2022-08-04T09:37:06;4.60;;;4.30;;
18499;SDS011;9379;52.134;11.576;2022-08-04T11:14:15;1.58;;;1.48;;
18499;SDS011;9379;52.134;11.576;2022-08-04T12:19:28;1.55;;;1.45;;
18499;SDS011;9379;52.134;11.576;2022-08-04T12:22:44;6.65;;;2.58;;
18499;SDS011;9379;52.134;11.576;2022-08-04T12:32:27;2.42;;;2.22;;
18499;SDS011;9379;52.134;11.576;2022-08-04T13:02:10;2.75;;;2.20;;
18499;SDS011;9379;52.134;11.576;2022-08-04T13:19:33;2.33;;;2.05;;
18499;SDS011;9379;52.134;11.576;2022-08-04T13:50:44;2.95;;;1.25;;
18499;SDS011;9379;52.134;11.576;2022-08-04T14:07:15;1.35;;;1.25;;
18499;SDS011;9379;52.134;11.576;2022-08-04T14:27:06;1.38;;;1.27;;
18499;SDS011;9379;52.134;11.576;2022-08-04T14:29:48;1.60;;;1.50;;
18499;SDS011;9379;52.134;11.576;2022-08-04T14:59:51;1.42;;;1.00;;
18499;SDS011;9379;52.134;11.576;2022-08-04T15:02:50;1.55;;;1.45;;
18499;SDS011;9379;52.134;11.576;2022-08-04T15:19:20;4.90;;;2.20;;
18499;SDS011;9379;52.134;11.576;2022-08-04T15:39:57;3.88;;;1.83;;
18499;SDS011;9379;52.134;11.576;2022-08-04T16:03:47;1.35;;;1.00;;
18499;SDS011;9379;52.134;11.576;2022-08-04T16:17:02;1.20;;;1.20;;
18499;SDS011;9379;52.134;11.576;2022-08-04T16:27:06;1.10;;;1.10;;
18499;SDS011;9379;52.134;11.576;2022-08-04T16:30:14;7.82;;;2.25;;
18499;SDS011;9379;52.134;11.576;2022-08-04T16:43:08;1.42;;;1.15;;
18499;SDS011;9379;52.134;11.576;2022-08-04T16:45:51;1.67;;;1.58;;
18499;SDS011;9379;52.134;11.576;2022-08-04T16:48:24;1.60;;;1.50;;
18499;SDS011;9379;52.134;11.576;2022-08-04T16:50:57;0.98;;;0.95;;
18499;SDS011;9379;52.134;11.576;2022-08-04T16:53:33;2.22;;;2.05;;
18499;SDS011;9379;52.134;11.576;2022-08-04T16:56:38;2.25;;;1.48;;
18499;SDS011;9379;52.134;11.576;2022-08-04T18:10:59;1.13;;;1.13;;
18499;SDS011;9379;52.134;11.576;2022-08-04T18:13:35;1.10;;;1.10;;
18499;SDS011;9379;52.134;11.576;2022-08-04T18:23:20;2.38;;;2.03;;
18499;SDS011;9379;52.134;11.576;2022-08-04T18:29:05;1.38;;;1.17;;
18499;SDS011;9379;52.134;11.576;2022-08-04T18:32:01;1.67;;;1.58;;
18499;SDS011;9379;52.134;11.576;2022-08-04T18:38:11;1.67;;;1.58;;
18499;SDS011;9379;52.134;11.576;2022-08-04T18:41:34;3.08;;;2.35;;
18499;SDS011;9379;52.134;11.576;2022-08-04T18:44:09;1.77;;;1.48;;
18499;SDS011;9379;52.134;11.576;2022-08-04T18:47:09;1.75;;;1.63;;
18499;SDS011;9379;52.134;11.576;2022-08-04T18:52:59;4.00;;;2.08;;
18499;SDS011;9379;52.134;11.576;2022-08-04T18:56:10;2.13;;;1.92;;
18499;SDS011;9379;52.134;11.576;2022-08-04T18:59:20;1.65;;;1.40;;
18499;SDS011;9379;52.134;11.576;2022-08-04T19:02:09;1.70;;;1.60;;
18499;SDS011;9379;52.134;11.576;2022-08-04T19:05:06;1.75;;;1.58;;
18499;SDS011;9379;52.134;11.576;2022-08-04T19:07:59;4.65;;;1.63;;
18499;SDS011;9379;52.134;11.576;2022-08-04T19:11:02;4.45;;;1.30;;
18499;SDS011;9379;52.134;11.576;2022-08-04T19:13:50;1.90;;;1.75;;
18499;SDS011;9379;52.134;11.576;2022-08-04T19:16:47;8.55;;;1.95;;
18499;SDS011;9379;52.134;11.576;2022-08-04T19:19:51;5.07;;;1.02;;
18499;SDS011;9379;52.134;11.576;2022-08-04T19:22:34;1.02;;;0.93;;
18499;SDS011;9379;52.134;11.576;2022-08-04T19:25:01;1.10;;;1.00;;
18499;SDS011;9379;52.134;11.576;2022-08-04T19:27:41;1.55;;;1.45;;
18499;SDS011;9379;52.134;11.576;2022-08-04T19:30:14;1.27;;;1.20;;
18499;SDS011;9379;52.134;11.576;2022-08-04T19:32:44;1.52;;;1.42;;
18499;SDS011;9379;52.134;11.576;2022-08-04T19:35:14;1.90;;;1.38;;
18499;SDS011;9379;52.134;11.576;2022-08-04T19:37:47;2.08;;;1.90;;
18499;SDS011;9379;52.134;11.576;2022-08-04T19:40:15;1.85;;;1.67;;
18499;SDS011;9379;52.134;11.576;2022-08-04T19:42:54;1.30;;;1.20;;
18499;SDS011;9379;52.134;11.576;2022-08-04T19:45:28;1.50;;;1.40;;
18499;SDS011;9379;52.134;11.576;2022-08-04T19:47:59;1.08;;;1.02;;
18499;SDS011;9379;52.134;11.576;2022-08-04T19:50:33;2.00;;;1.90;;
18499;SDS011;9379;52.134;11.576;2022-08-04T19:53:01;1.60;;;1.50;;
18499;SDS011;9379;52.134;11.576;2022-08-04T19:55:31;1.65;;;1.48;;
18499;SDS011;9379;52.134;11.576;2022-08-04T19:58:00;3.33;;;1.60;;
18499;SDS011;9379;52.134;11.576;2022-08-04T20:00:38;1.90;;;1.77;;
18499;SDS011;9379;52.134;11.576;2022-08-04T20:03:33;1.42;;;1.33;;
18499;SDS011;9379;52.134;11.576;2022-08-04T20:06:04;3.75;;;1.73;;
18499;SDS011;9379;52.134;11.576;2022-08-04T20:08:40;1.92;;;1.55;;
18499;SDS011;9379;52.134;11.576;2022-08-04T20:11:10;1.30;;;1.20;;
18499;SDS011;9379;52.134;11.576;2022-08-04T20:14:01;1.65;;;1.55;;
18499;SDS011;9379;52.134;11.576;2022-08-04T20:16:37;1.45;;;1.35;;
18499;SDS011;9379;52.134;11.576;2022-08-04T20:19:08;1.88;;;1.35;;
18499;SDS011;9379;52.134;11.576;2022-08-04T20:21:44;5.05;;;1.27;;
18499;SDS011;9379;52.134;11.576;2022-08-04T20:24:12;1.35;;;1.25;;
18499;SDS011;9379;52.134;11.576;2022-08-04T20:26:49;1.95;;;1.85;;
18499;SDS011;9379;52.134;11.576;2022-08-04T20:29:19;1.80;;;1.70;;
18499;SDS011;9379;52.134;11.576;2022-08-04T20:31:50;2.38;;;1.13;;
18499;SDS011;9379;52.134;11.576;2022-08-04T20:34:40;2.35;;;2.05;;
18499;SDS011;9379;52.134;11.576;2022-08-04T20:37:28;1.67;;;1.58;;
18499;SDS011;9379;52.134;11.576;2022-08-04T20:43:09;1.90;;;1.80;;
18499;SDS011;9379;52.134;11.576;2022-08-04T20:45:53;1.55;;;1.45;;
18499;SDS011;9379;52.134;11.576;2022-08-04T20:48:44;1.55;;;1.45;;
18499;SDS011;9379;52.134;11.576;2022-08-04T20:51:50;2.38;;;2.03;;
18499;SDS011;9379;52.134;11.576;2022-08-04T20:54:42;1.83;;;1.73;;
18499;SDS011;9379;52.134;11.576;2022-08-04T20:57:40;2.20;;;2.03;;
18499;SDS011;9379;52.134;11.576;2022-08-04T21:00:57;3.08;;;1.65;;
18499;SDS011;9379;52.134;11.576;2022-08-04T21:10:31;1.70;;;1.55;;
18499;SDS011;9379;52.134;11.576;2022-08-04T21:13:22;1.83;;;1.73;;
18499;SDS011;9379;52.134;11.576;2022-08-04T21:15:58;1.80;;;1.70;;
18499;SDS011;9379;52.134;11.576;2022-08-04T21:18:29;1.95;;;1.85;;
18499;SDS011;9379;52.134;11.576;2022-08-04T21:21:17;2.08;;;1.98;;
18499;SDS011;9379;52.134;11.576;2022-08-04T21:24:04;1.88;;;1.77;;
18499;SDS011;9379;52.134;11.576;2022-08-04T21:29:52;1.15;;;1.05;;
18499;SDS011;9379;52.134;11.576;2022-08-04T21:32:29;2.22;;;2.13;;
18499;SDS011;9379;52.134;11.576;2022-08-04T21:35:07;2.13;;;2.03;;
18499;SDS011;9379;52.134;11.576;2022-08-04T21:37:38;3.40;;;1.88;;
18499;SDS011;9379;52.134;11.576;2022-08-04T21:40:09;1.67;;;1.58;;
18499;SDS011;9379;52.134;11.576;2022-08-04T21:42:43;3.35;;;1.95;;
18499;SDS011;9379;52.134;11.576;2022-08-04T21:45:12;4.03;;;1.92;;
18499;SDS011;9379;52.134;11.576;2022-08-04T21:47:45;2.55;;;2.35;;
18499;SDS011;9379;52.134;11.576;2022-08-04T21:50:20;1.52;;;1.42;;
18499;SDS011;9379;52.134;11.576;2022-08-04T21:52:53;4.85;;;2.40;;
18499;SDS011;9379;52.134;11.576;2022-08-04T21:55:24;1.65;;;1.55;;
18499;SDS011;9379;52.134;11.576;2022-08-04T21:57:53;1.75;;;1.65;;
18499;SDS011;9379;52.134;11.576;2022-08-04T22:00:25;1.70;;;1.60;;
18499;SDS011;9379;52.134;11.576;2022-08-04T22:02:57;1.77;;;1.50;;
18499;SDS011;9379;52.134;11.576;2022-08-04T22:05:26;2.13;;;1.92;;
18499;SDS011;9379;52.134;11.576;2022-08-04T22:07:56;6.75;;;1.70;;
18499;SDS011;9379;52.134;11.576;2022-08-04T22:10:23;1.10;;;1.08;;
18499;SDS011;9379;52.134;11.576;2022-08-04T22:12:55;2.05;;;1.65;;
18499;SDS011;9379;52.134;11.576;2022-08-04T22:15:23;1.45;;;1.35;;
18499;SDS011;9379;52.134;11.576;2022-08-04T22:17:54;2.60;;;1.40;;
18499;SDS011;9379;52.134;11.576;2022-08-04T22:20:31;2.53;;;1.60;;
18499;SDS011;9379;52.134;11.576;2022-08-04T22:22:59;1.58;;;1.48;;
18499;SDS011;9379;52.134;11.576;2022-08-04T22:25:26;1.70;;;1.60;;
18499;SDS011;9379;52.134;11.576;2022-08-04T22:28:01;1.73;;;1.63;;
18499;SDS011;9379;52.134;11.576;2022-08-04T22:30:31;1.98;;;1.70;;
18499;SDS011;9379;52.134;11.576;2022-08-04T22:33:01;1.30;;;1.20;;
18499;SDS011;9379;52.134;11.576;2022-08-04T22:35:32;4.18;;;2.53;;
18499;SDS011;9379;52.134;11.576;2022-08-04T22:38:05;10.85;;;2.50;;
18499;SDS011;9379;52.134;11.576;2022-08-04T22:40:33;1.60;;;1.50;;
18499;SDS011;9379;52.134;11.576;2022-08-04T22:43:04;2.67;;;1.67;;
18499;SDS011;9379;52.134;11.576;2022-08-04T22:45:35;4.85;;;1.70;;
18499;SDS011;9379;52.134;11.576;2022-08-04T22:48:07;1.60;;;1.50;;
18499;SDS011;9379;52.134;11.576;2022-08-04T22:50:53;4.82;;;1.75;;
18499;SDS011;9379;52.134;11.576;2022-08-04T22:53:33;1.92;;;1.35;;
18499;SDS011;9379;52.134;11.576;2022-08-04T22:56:06;1.50;;;1.40;;
18499;SDS011;9379;52.134;11.576;2022-08-04T22:58:35;2.63;;;2.05;;
18499;SDS011;9379;52.134;11.576;2022-08-04T23:01:03;1.48;;;1.38;;
18499;SDS011;9379;52.134;11.576;2022-08-04T23:03:32;2.50;;;2.30;;
18499;SDS011;9379;52.134;11.576;2022-08-04T23:06:05;4.15;;;1.52;;
18499;SDS011;9379;52.134;11.576;2022-08-04T23:08:34;1.52;;;1.17;;
18499;SDS011;9379;52.134;11.576;2022-08-04T23:11:05;2.45;;;1.90;;
18499;SDS011;9379;52.134;11.576;2022-08-04T23:13:34;2.38;;;2.05;;
18499;SDS011;9379;52.134;11.576;2022-08-04T23:16:08;1.90;;;1.70;;
18499;SDS011;9379;52.134;11.576;2022-08-04T23:18:40;1.92;;;1.67;;
18499;SDS011;9379;52.134;11.576;2022-08-04T23:21:08;4.07;;;2.13;;
18499;SDS011;9379;52.134;11.576;2022-08-04T23:23:37;2.05;;;1.95;;
18499;SDS011;9379;52.134;11.576;2022-08-04T23:26:09;4.18;;;1.92;;
18499;SDS011;9379;52.134;11.576;2022-08-04T23:28:41;1.65;;;1.55;;
18499;SDS011;9379;52.134;11.576;2022-08-04T23:31:13;3.30;;;2.10;;
18499;SDS011;9379;52.134;11.576;2022-08-04T23:33:40;2.47;;;2.28;;
18499;SDS011;9379;52.134;11.576;2022-08-04T23:36:11;3.50;;;1.40;;
18499;SDS011;9379;52.134;11.576;2022-08-04T23:38:41;1.63;;;1.52;;
18499;SDS011;9379;52.134;11.576;2022-08-04T23:41:22;2.20;;;2.00;;
18499;SDS011;9379;52.134;11.576;2022-08-04T23:43:51;2.80;;;1.80;;
18499;SDS011;9379;52.134;11.576;2022-08-04T23:46:18;2.13;;;1.92;;
18499;SDS011;9379;52.134;11.576;2022-08-04T23:48:45;1.77;;;1.67;;
18499;SDS011;9379;52.134;11.576;2022-08-04T23:51:14;3.75;;;2.70;;
18499;SDS011;9379;52.134;11.576;2022-08-04T23:53:47;1.55;;;1.45;;
18499;SDS011;9379;52.134;11.576;2022-08-04T23:56:16;2.55;;;1.85;;
18499;SDS011;9379;52.134;11.576;2022-08-04T23:58:45;1.88;;;1.77;;
